createdAt,value
2023-10-10T00:00:00.149Z,82
2023-10-10T00:05:00.175Z,82
2023-10-10T00:10:00.133Z,82
2023-10-10T00:15:00.144Z,82
2023-10-10T00:20:00.156Z,82
2023-10-10T00:25:00.118Z,82
2023-10-10T00:30:00.129Z,82
2023-10-10T00:35:00.156Z,82
2023-10-10T00:40:00.123Z,82
2023-10-10T00:45:00.158Z,82
2023-10-10T00:50:00.243Z,83
2023-10-10T00:55:00.169Z,82
2023-10-10T01:00:00.121Z,83
2023-10-10T01:05:00.156Z,83
2023-10-10T01:10:00.166Z,83
2023-10-10T01:15:00.144Z,83
2023-10-10T01:20:00.227Z,83
2023-10-10T01:25:00.130Z,83
2023-10-10T01:30:00.111Z,83
2023-10-10T01:35:00.213Z,83
2023-10-10T01:40:00.170Z,84
2023-10-10T01:45:00.251Z,84
2023-10-10T01:50:00.221Z,84
2023-10-10T01:55:00.129Z,84
2023-10-10T02:00:00.248Z,84
2023-10-10T02:05:00.207Z,84
2023-10-10T02:10:00.144Z,84
2023-10-10T02:15:00.145Z,84
2023-10-10T02:20:00.240Z,84
2023-10-10T02:25:00.153Z,83
2023-10-10T02:30:00.132Z,83
2023-10-10T02:35:00.182Z,84
2023-10-10T02:40:00.151Z,83
2023-10-10T02:45:00.163Z,82
2023-10-10T02:50:00.196Z,81
2023-10-10T02:55:00.146Z,80
2023-10-10T03:00:00.184Z,79
2023-10-10T03:05:00.152Z,79
2023-10-10T03:10:00.187Z,78
2023-10-10T03:15:00.128Z,77
2023-10-10T03:20:00.226Z,77
2023-10-10T03:25:00.123Z,77
2023-10-10T03:30:00.170Z,77
2023-10-10T03:35:00.181Z,76
2023-10-10T03:40:00.100Z,76
2023-10-10T03:45:00.133Z,77
2023-10-10T03:50:00.194Z,79
2023-10-10T03:55:00.132Z,79
2023-10-10T04:00:00.421Z,79
2023-10-10T04:05:12.075Z,80
2023-10-10T04:10:00.119Z,81
2023-10-10T04:15:00.220Z,82
2023-10-10T04:20:00.231Z,82
2023-10-10T04:25:02.326Z,83
2023-10-10T04:30:00.123Z,83
2023-10-10T04:35:00.154Z,83
2023-10-10T04:40:00.121Z,83
2023-10-10T04:45:00.150Z,83
2023-10-10T04:50:00.177Z,83
2023-10-10T04:55:00.161Z,83
2023-10-10T05:00:00.106Z,84
2023-10-10T05:05:00.238Z,84
2023-10-10T05:10:00.155Z,85
2023-10-10T05:15:00.114Z,86
2023-10-10T05:20:00.171Z,86
2023-10-10T05:25:00.135Z,86
2023-10-10T05:30:00.138Z,86
2023-10-10T05:35:01.655Z,86
2023-10-10T05:40:00.232Z,86
2023-10-10T05:45:00.159Z,86
2023-10-10T05:50:00.159Z,86
2023-10-10T05:55:00.129Z,86
2023-10-10T06:00:00.115Z,86
2023-10-10T06:05:00.127Z,86
2023-10-10T06:10:00.246Z,86
2023-10-10T06:15:00.122Z,85
2023-10-10T06:20:00.168Z,85
2023-10-10T06:25:00.155Z,84
2023-10-10T06:30:00.175Z,84
2023-10-10T06:35:00.155Z,84
2023-10-10T06:40:00.356Z,83
2023-10-10T06:45:00.120Z,83
2023-10-10T06:50:03.190Z,83
2023-10-10T06:55:00.115Z,82
2023-10-10T07:00:00.108Z,82
2023-10-10T07:05:00.136Z,80
2023-10-10T07:10:00.147Z,79
2023-10-10T07:15:00.276Z,77
2023-10-10T07:20:00.124Z,76
2023-10-10T07:25:00.170Z,75
2023-10-10T07:30:00.191Z,75
2023-10-10T07:35:00.329Z,74
2023-10-10T07:40:00.118Z,73
2023-10-10T07:45:00.151Z,73
2023-10-10T07:50:00.145Z,72
2023-10-10T07:55:00.133Z,71
2023-10-10T08:00:00.308Z,70
2023-10-10T08:05:00.134Z,70
2023-10-10T08:10:00.150Z,69
2023-10-10T08:15:00.240Z,68
2023-10-10T08:20:00.190Z,68
2023-10-10T08:25:00.110Z,67
2023-10-10T08:30:00.107Z,67
2023-10-10T08:35:00.160Z,66
2023-10-10T08:40:00.115Z,66
2023-10-10T08:45:00.171Z,64
2023-10-10T08:50:00.194Z,64
2023-10-10T08:55:00.166Z,63
2023-10-10T09:00:00.248Z,62
2023-10-10T09:05:00.149Z,62
2023-10-10T09:10:00.137Z,60
2023-10-10T09:15:00.163Z,60
2023-10-10T09:20:00.134Z,58
2023-10-10T09:25:00.115Z,58
2023-10-10T09:30:00.139Z,57
2023-10-10T09:35:00.157Z,57
2023-10-10T09:40:00.159Z,56
2023-10-10T09:45:00.222Z,55
2023-10-10T09:50:00.139Z,56
2023-10-10T09:55:00.156Z,55
2023-10-10T10:00:08.949Z,55
2023-10-10T10:05:00.123Z,54
2023-10-10T10:10:00.135Z,54
2023-10-10T10:15:00.178Z,54
2023-10-10T10:20:00.139Z,53
2023-10-10T10:25:00.145Z,52
2023-10-10T10:30:00.144Z,51
2023-10-10T10:35:00.123Z,50
2023-10-10T10:40:00.129Z,49
2023-10-10T10:45:00.564Z,48
2023-10-10T10:50:00.160Z,48
2023-10-10T10:55:00.133Z,48
2023-10-10T11:00:00.187Z,48
2023-10-10T11:05:00.215Z,48
2023-10-10T11:10:00.140Z,46
2023-10-10T11:15:00.215Z,47
2023-10-10T11:20:00.152Z,45
2023-10-10T11:25:00.142Z,45
2023-10-10T11:30:00.132Z,44
2023-10-10T11:35:00.145Z,44
2023-10-10T11:40:00.176Z,44
2023-10-10T11:45:00.281Z,44
2023-10-10T11:50:00.264Z,43
2023-10-10T11:55:00.173Z,42
2023-10-10T12:00:06.338Z,41
2023-10-10T12:05:00.163Z,41
2023-10-10T12:10:00.208Z,40
2023-10-10T12:15:00.231Z,40
2023-10-10T12:20:00.133Z,40
2023-10-10T12:25:00.123Z,40
2023-10-10T12:30:00.155Z,41
2023-10-10T12:35:00.118Z,40
2023-10-10T12:40:00.113Z,40
2023-10-10T12:45:00.207Z,41
2023-10-10T12:50:00.163Z,39
2023-10-10T12:55:00.294Z,38
2023-10-10T13:00:00.213Z,38
2023-10-10T13:05:00.141Z,37
2023-10-10T13:10:00.174Z,38
2023-10-10T13:15:00.234Z,38
2023-10-10T13:20:00.762Z,38
2023-10-10T13:25:00.136Z,39
2023-10-10T13:35:00.467Z,39
2023-10-10T13:40:00.122Z,40
2023-10-10T13:45:00.233Z,39
2023-10-10T13:50:00.161Z,40
2023-10-10T13:55:00.168Z,40
2023-10-10T14:00:00.185Z,40
2023-10-10T14:05:00.170Z,40
2023-10-10T14:10:03.818Z,41
2023-10-10T14:15:00.208Z,41
2023-10-10T14:20:00.100Z,41
2023-10-10T14:25:00.133Z,41
2023-10-10T14:30:00.183Z,42
2023-10-10T14:35:00.177Z,42
2023-10-10T14:40:00.168Z,42
2023-10-10T14:45:00.217Z,42
2023-10-10T14:50:00.123Z,42
2023-10-10T14:55:00.130Z,42
2023-10-10T15:00:00.237Z,42
2023-10-10T15:05:00.158Z,42
2023-10-10T15:10:00.141Z,41
2023-10-10T15:15:00.166Z,41
2023-10-10T15:20:00.129Z,40
2023-10-10T15:25:00.155Z,40
2023-10-10T15:30:00.234Z,40
2023-10-10T15:35:00.143Z,40
2023-10-10T15:40:00.132Z,40
2023-10-10T15:45:00.215Z,40
2023-10-10T15:50:00.147Z,41
2023-10-10T15:55:00.152Z,40
2023-10-10T16:00:00.176Z,40
2023-10-10T16:05:00.123Z,40
2023-10-10T16:10:00.125Z,41
2023-10-10T16:15:00.280Z,42
2023-10-10T16:20:00.155Z,43
2023-10-10T16:25:00.137Z,43
2023-10-10T16:30:00.182Z,44
2023-10-10T16:35:00.119Z,44
2023-10-10T16:40:00.155Z,45
2023-10-10T16:45:00.211Z,45
2023-10-10T16:50:00.152Z,45
2023-10-10T16:55:00.125Z,45
2023-10-10T17:00:00.177Z,45
2023-10-10T17:05:00.153Z,44
2023-10-10T17:10:00.217Z,45
2023-10-10T17:15:00.155Z,45
2023-10-10T17:20:00.121Z,46
2023-10-10T17:25:00.115Z,47
2023-10-10T17:30:00.252Z,47
2023-10-10T17:35:00.157Z,47
2023-10-10T17:40:00.184Z,46
2023-10-10T17:45:00.276Z,46
2023-10-10T17:50:00.273Z,47
2023-10-10T17:55:00.125Z,47
2023-10-10T18:00:00.211Z,47
2023-10-10T18:05:00.363Z,47
2023-10-10T18:10:00.119Z,48
2023-10-10T18:15:00.158Z,49
2023-10-10T18:20:00.121Z,50
2023-10-10T18:25:00.127Z,51
2023-10-10T18:30:00.217Z,53
2023-10-10T18:35:00.144Z,54
2023-10-10T18:40:00.147Z,54
2023-10-10T18:45:05.154Z,54
2023-10-10T18:50:00.146Z,55
2023-10-10T18:55:00.135Z,55
2023-10-10T19:00:00.188Z,55
2023-10-10T19:05:00.158Z,54
2023-10-10T19:10:00.138Z,55
2023-10-10T19:15:00.244Z,54
2023-10-10T19:20:00.196Z,55
2023-10-10T19:25:00.169Z,56
2023-10-10T19:30:00.315Z,56
2023-10-10T19:35:00.156Z,57
2023-10-10T19:40:02.525Z,58
2023-10-10T19:45:11.138Z,59
2023-10-10T19:50:00.138Z,59
2023-10-10T19:55:12.868Z,59
2023-10-10T20:00:00.239Z,59
2023-10-10T20:05:00.132Z,59
2023-10-10T20:10:00.133Z,59
2023-10-10T20:15:00.209Z,60
2023-10-10T20:20:00.146Z,61
2023-10-10T20:25:00.168Z,61
2023-10-10T20:30:00.263Z,62
2023-10-10T20:35:00.131Z,59
2023-10-10T20:40:00.132Z,58
2023-10-10T20:45:00.207Z,58
2023-10-10T20:50:00.132Z,58
2023-10-10T20:55:00.133Z,58
2023-10-10T21:00:00.185Z,57
2023-10-10T21:05:00.190Z,58
2023-10-10T21:10:00.196Z,58
2023-10-10T21:15:00.157Z,59
2023-10-10T21:20:00.148Z,59
2023-10-10T21:25:00.115Z,59
2023-10-10T21:30:00.232Z,60
2023-10-10T21:35:00.124Z,60
2023-10-10T21:40:00.151Z,60
2023-10-10T21:45:00.170Z,61
2023-10-10T21:50:00.129Z,62
2023-10-10T21:55:00.117Z,63
2023-10-10T22:00:00.198Z,64
2023-10-10T22:05:00.164Z,65
2023-10-10T22:10:00.122Z,65
2023-10-10T22:15:00.228Z,66
2023-10-10T22:20:00.141Z,66
2023-10-10T22:25:00.144Z,66
2023-10-10T22:30:00.223Z,66
2023-10-10T22:35:00.151Z,65
2023-10-10T22:40:00.167Z,66
2023-10-10T22:45:00.164Z,66
2023-10-10T22:50:00.245Z,67
2023-10-10T22:55:00.133Z,65
2023-10-10T23:00:00.255Z,64
2023-10-10T23:05:00.124Z,63
2023-10-10T23:10:00.170Z,63
2023-10-10T23:15:00.146Z,62
2023-10-10T23:20:00.168Z,63
2023-10-10T23:25:00.150Z,65
2023-10-10T23:30:00.229Z,66
2023-10-10T23:35:00.123Z,67
2023-10-10T23:40:00.113Z,67
2023-10-10T23:45:00.294Z,68
2023-10-10T23:50:00.178Z,68
2023-10-10T23:55:00.172Z,67
